Big Bear Station Historical Data
Daily Summary for March 5, 2018 Units:  English    Metric   Both
Next Day »
Daily Weekly Monthly Yearly Custom
  High: Low: Average:
Temperature: 48.7 °F 19.0 °F 28.7 °F
Dew Point: 16.4 °F 6.4 °F 11.5 °F
Humidity: 73% 22% 52%
Wind Speed: 5.8mph 0.0mph 0.5mph
Wind Gust: -999.0mph - -
Wind- - WSW
Pressure: 23.54 in 23.49 in -
Precipitation: 0.00 in    
Historical Graphs
 
 
Tabular Data for March 5, 2018
Time Temperature Dew Point Pressure Wind Wind Speed Wind Gust Humidity Rainfall Rate (Hourly)
00:00 22.8 °F 12.8 °F 23.53 in Calm   -999.0 mph 65% 0 in
00:15 22.5 °F 12.9 °F 23.53 in Calm   -999.0 mph 66% 0 in
00:30 22.5 °F 13.2 °F 23.53 in Calm   -999.0 mph 67% 0 in
00:46 22.1 °F 11.8 °F 23.53 in Calm   -999.0 mph 64% 0 in
01:01 22.3 °F 13.3 °F 23.53 in Calm   -999.0 mph 68% 0 in
01:16 22.1 °F 13.1 °F 23.53 in Calm   -999.0 mph 68% 0 in
01:31 21.6 °F 12.0 °F 23.53 in Calm   -999.0 mph 66% 0 in
01:47 21.2 °F 11.3 °F 23.53 in Calm   -999.0 mph 65% 0 in
02:02 21.2 °F 10.6 °F 23.53 in Calm   -999.0 mph 63% 0 in
02:17 20.7 °F 11.8 °F 23.52 in Calm   -999.0 mph 68% 0 in
02:33 20.7 °F 11.5 °F 23.52 in Calm   -999.0 mph 67% 0 in
02:48 20.1 °F 11.2 °F 23.52 in Calm   -999.0 mph 68% 0 in
03:03 19.2 °F 10.7 °F 23.51 in Calm   -999.0 mph 69% 0 in
03:18 19.6 °F 11.1 °F 23.51 in Calm   -999.0 mph 69% 0 in
03:33 19.2 °F 11.7 °F 23.51 in Calm   -999.0 mph 72% 0 in
03:49 19.0 °F 11.8 °F 23.51 in Calm   -999.0 mph 73% 0 in
04:04 19.0 °F 11.8 °F 23.51 in Calm   -999.0 mph 73% 0 in
04:19 19.2 °F 11.3 °F 23.51 in Calm   -999.0 mph 71% 0 in
04:35 19.0 °F 11.8 °F 23.52 in Calm   -999.0 mph 73% 0 in
04:50 19.2 °F 12.0 °F 23.52 in SW 2.2 mph -999.0 mph 73% 0 in
05:05 20.1 °F 12.2 °F 23.51 in Calm   -999.0 mph 71% 0 in
05:21 19.9 °F 11.0 °F 23.51 in Calm   -999.0 mph 68% 0 in
05:36 19.8 °F 11.6 °F 23.52 in Calm   -999.0 mph 70% 0 in
05:52 19.6 °F 12.0 °F 23.52 in Calm   -999.0 mph 72% 0 in
06:07 19.2 °F 11.3 °F 23.52 in Calm   -999.0 mph 71% 0 in
06:22 19.6 °F 10.4 °F 23.52 in Calm   -999.0 mph 67% 0 in
13:13 45.5 °F 11.7 °F 23.51 in Calm   -999.0 mph 25% 0 in
13:28 48.7 °F 11.5 °F 23.51 in SSW 4.2 mph -999.0 mph 22% 0 in
13:43 46.6 °F 10.7 °F 23.50 in East 1.1 mph -999.0 mph 23% 0 in
13:58 45.9 °F 12.9 °F 23.50 in NNE 2.7 mph -999.0 mph 26% 0 in
14:14 46.4 °F 9.6 °F 23.50 in WSW 1.1 mph -999.0 mph 22% 0 in
14:29 47.1 °F 12.1 °F 23.50 in NNW 3.7 mph -999.0 mph 24% 0 in
14:44 46.4 °F 10.6 °F 23.50 in WNW 2.2 mph -999.0 mph 23% 0 in
14:59 45.9 °F 10.1 °F 23.50 in WNW 5.8 mph -999.0 mph 23% 0 in
15:15 46.0 °F 13.0 °F 23.49 in NNW 5.3 mph -999.0 mph 26% 0 in
15:30 45.1 °F 16.2 °F 23.49 in NW 1.1 mph -999.0 mph 31% 0 in
15:45 44.4 °F 16.4 °F 23.49 in NNW 4.2 mph -999.0 mph 32% 0 in
16:00 43.7 °F 13.5 °F 23.49 in Calm   -999.0 mph 29% 0 in
16:15 43.3 °F 12.3 °F 23.49 in WNW 2.7 mph -999.0 mph 28% 0 in
16:31 42.6 °F 11.7 °F 23.49 in Calm   -999.0 mph 28% 0 in
16:46 41.2 °F 10.5 °F 23.49 in SSW 1.1 mph -999.0 mph 28% 0 in
17:01 39.4 °F 9.7 °F 23.49 in Calm   -999.0 mph 29% 0 in
17:17 37.6 °F 10.4 °F 23.50 in Calm   -999.0 mph 32% 0 in
17:32 35.8 °F 9.5 °F 23.50 in Calm   -999.0 mph 33% 0 in
17:47 34.3 °F 8.8 °F 23.51 in Calm   -999.0 mph 34% 0 in
18:04 32.4 °F 6.5 °F 23.51 in Calm   -999.0 mph 33% 0 in
18:19 30.9 °F 7.0 °F 23.51 in Calm   -999.0 mph 36% 0 in
18:35 29.5 °F 6.4 °F 23.51 in Calm   -999.0 mph 37% 0 in
18:50 28.8 °F 6.4 °F 23.52 in Calm   -999.0 mph 38% 0 in
19:05 27.7 °F 8.1 °F 23.52 in Calm   -999.0 mph 43% 0 in
19:20 27.3 °F 7.7 °F 23.52 in Calm   -999.0 mph 43% 0 in
19:37 26.4 °F 10.3 °F 23.53 in Calm   -999.0 mph 50% 0 in
19:52 26.2 °F 9.2 °F 23.53 in Calm   -999.0 mph 48% 0 in
20:07 26.1 °F 10.9 °F 23.53 in Calm   -999.0 mph 52% 0 in
20:22 25.3 °F 12.2 °F 23.54 in Calm   -999.0 mph 57% 0 in
20:38 25.5 °F 12.0 °F 23.54 in Calm   -999.0 mph 56% 0 in
20:53 25.3 °F 12.2 °F 23.54 in Calm   -999.0 mph 57% 0 in
21:09 25.0 °F 13.4 °F 23.54 in Calm   -999.0 mph 61% 0 in
21:24 25.0 °F 13.4 °F 23.54 in Calm   -999.0 mph 61% 0 in
21:39 24.3 °F 12.4 °F 23.54 in Calm   -999.0 mph 60% 0 in
21:55 24.4 °F 12.9 °F 23.53 in Calm   -999.0 mph 61% 0 in
22:10 24.8 °F 14.3 °F 23.53 in Calm   -999.0 mph 64% 0 in
22:25 24.1 °F 13.3 °F 23.53 in Calm   -999.0 mph 63% 0 in
22:40 24.1 °F 15.7 °F 23.54 in Calm   -999.0 mph 70% 0 in
22:56 23.9 °F 13.8 °F 23.53 in Calm   -999.0 mph 65% 0 in
23:11 24.3 °F 11.6 °F 23.53 in Calm   -999.0 mph 58% 0 in
23:27 24.4 °F 10.1 °F 23.53 in Calm   -999.0 mph 54% 0 in
23:42 24.3 °F 13.9 °F 23.53 in Calm   -999.0 mph 64% 0 in
23:57 24.3 °F 12.0 °F 23.53 in Calm   -999.0 mph 59% 0 in
Big Bear CA Weather